Time;durP1;ratioP1;P1;durP2;ratioP2;P2;SDS_P1;SDS_P2;PMS_P1;PMS_P2;Temp;Humidity;BMP_temperature;BMP_pressure;BME280_temperature;BME280_humidity;BME280_pressure;Samples;Min_cycle;Max_cycle;Signal;HPM_P1;HPM_P2
2021/07/13 00:00:33;;;;;;;22.38;13.38;;;;;;;21.94;63.34;99453.78;5053890;28;20091;-72
2021/07/13 00:03:00;;;;;;;24.02;12.38;;;;;;;21.89;63.71;99449.34;5053657;28;20091;-71
2021/07/13 00:05:27;;;;;;;21.00;12.25;;;;;;;21.81;64.25;99457.41;5003021;28;20149;-73
2021/07/13 00:07:54;;;;;;;26.55;12.63;;;;;;;21.68;64.84;99451.00;5052549;28;20045;-70
2021/07/13 00:10:26;;;;;;;20.70;13.05;;;;;;;21.58;65.26;99449.34;5052738;28;20083;-71
2021/07/13 00:12:54;;;;;;;22.73;12.63;;;;;;;21.51;65.42;99446.28;5068186;28;20150;-71
2021/07/13 00:15:23;;;;;;;20.35;12.27;;;;;;;21.45;65.46;99453.72;5035872;28;20124;-70
2021/07/13 00:17:51;;;;;;;23.20;12.38;;;;;;;21.41;65.49;99444.63;5052345;28;20494;-70
2021/07/13 00:20:17;;;;;;;29.23;12.82;;;;;;;21.50;65.64;99445.50;5052190;28;20186;-71
2021/07/13 00:22:43;;;;;;;17.23;12.55;;;;;;;21.48;65.71;99441.53;5035695;28;20052;-71
2021/07/13 00:25:11;;;;;;;31.77;12.82;;;;;;;21.44;65.90;99441.34;5053441;28;20040;-70
2021/07/13 00:27:38;;;;;;;29.02;14.27;;;;;;;21.36;65.78;99442.06;5053569;28;20060;-71
2021/07/13 00:30:05;;;;;;;26.40;13.50;;;;;;;21.29;66.04;99450.53;5034831;28;20090;-71
2021/07/13 00:32:31;;;;;;;24.23;12.02;;;;;;;21.22;65.94;99444.81;5052100;28;20521;-73
2021/07/13 00:34:57;;;;;;;21.90;12.73;;;;;;;21.22;65.97;99447.50;5051971;28;20127;-71
2021/07/13 00:37:23;;;;;;;19.63;11.57;;;;;;;21.19;66.02;99448.09;5053162;28;20080;-71
2021/07/13 00:39:50;;;;;;;21.92;12.85;;;;;;;21.13;66.27;99438.56;5035407;28;20041;-70
2021/07/13 00:42:17;;;;;;;25.02;12.77;;;;;;;21.10;66.27;99450.75;5035625;28;20051;-70
2021/07/13 00:44:45;;;;;;;23.67;12.77;;;;;;;21.15;66.11;99446.31;5052067;28;20172;-70
2021/07/13 00:47:12;;;;;;;23.63;12.45;;;;;;;21.12;66.22;99453.16;5002376;28;20044;-70
2021/07/13 00:49:38;;;;;;;23.88;13.07;;;;;;;21.20;65.99;99449.69;5052114;28;20128;-70
2021/07/13 00:52:06;;;;;;;23.20;13.32;;;;;;;21.20;65.70;99447.00;5051669;28;20049;-71
2021/07/13 00:54:31;;;;;;;21.98;13.20;;;;;;;21.24;65.38;99444.50;5051656;28;20051;-71
2021/07/13 00:56:57;;;;;;;24.70;14.30;;;;;;;21.17;65.38;99450.31;5051637;28;20040;-70
2021/07/13 00:59:23;;;;;;;24.42;13.93;;;;;;;21.15;65.24;99457.91;5052861;28;20044;-71
2021/07/13 01:01:50;;;;;;;23.38;12.80;;;;;;;21.22;64.13;99458.28;5034894;28;20048;-71
2021/07/13 01:04:17;;;;;;;22.77;12.27;;;;;;;21.30;64.26;99454.06;5051427;28;20060;-71
2021/07/13 01:06:52;;;;;;;20.60;13.00;;;;;;;21.33;64.11;99456.16;5068058;28;20041;-70
2021/07/13 01:09:43;;;;;;;21.90;13.63;;;;;;;21.39;63.95;99454.94;5018327;28;20526;-72
2021/07/13 01:12:40;;;;;;;21.80;12.90;;;;;;;21.39;64.35;99459.53;5018412;28;20071;-70
2021/07/13 01:15:08;;;;;;;21.73;13.50;;;;;;;21.34;64.23;99460.44;5052463;28;20537;-70
2021/07/13 01:17:43;;;;;;;24.02;14.65;;;;;;;21.26;64.89;99455.75;5052393;28;20043;-71
2021/07/13 01:20:47;;;;;;;18.08;13.23;;;;;;;21.35;63.80;99462.00;5050901;28;20037;-70
2021/07/13 01:23:42;;;;;;;25.25;13.98;;;;;;;21.48;64.07;99463.09;5050884;28;20147;-70
2021/07/13 01:26:32;;;;;;;23.02;14.32;;;;;;;21.59;63.88;99466.31;5033934;28;20506;-71
2021/07/13 01:29:01;;;;;;;21.85;13.05;;;;;;;21.77;63.22;99468.03;5050738;28;20059;-70
2021/07/13 01:31:27;;;;;;;25.58;13.18;;;;;;;21.87;63.13;99461.56;5034030;28;20068;-71
2021/07/13 01:33:57;;;;;;;25.08;15.68;;;;;;;21.93;62.44;99461.09;5052350;28;20056;-72
2021/07/13 01:36:28;;;;;;;28.25;15.07;;;;;;;22.00;62.52;99456.06;5067775;28;20044;-72
2021/07/13 01:38:54;;;;;;;29.33;15.25;;;;;;;22.15;62.10;99451.38;5001512;28;20076;-71
2021/07/13 01:41:23;;;;;;;21.70;14.05;;;;;;;22.38;61.36;99452.88;5051959;28;20045;-71
2021/07/13 01:43:50;;;;;;;25.70;15.35;;;;;;;22.63;60.15;99455.94;5052502;28;20053;-71
2021/07/13 01:46:17;;;;;;;24.33;16.00;;;;;;;22.86;59.05;99452.00;5050670;28;20043;-71
2021/07/13 01:48:45;;;;;;;26.40;14.50;;;;;;;23.11;57.80;99452.34;5052224;28;20048;-71
2021/07/13 01:51:11;;;;;;;31.13;15.65;;;;;;;23.33;57.27;99456.78;5067201;28;20415;-71
2021/07/13 01:53:38;;;;;;;21.55;14.52;;;;;;;23.57;57.08;99451.63;5050580;28;20047;-70
2021/07/13 01:56:04;;;;;;;25.40;15.05;;;;;;;23.78;56.19;99448.25;5033845;28;20041;-71
2021/07/13 01:58:38;;;;;;;19.73;13.80;;;;;;;24.00;56.06;99444.50;5019161;28;20045;-71
2021/07/13 02:01:26;;;;;;;24.20;14.13;;;;;;;24.25;55.61;99451.72;5034115;28;20044;-72
2021/07/13 02:04:03;;;;;;;26.77;14.98;;;;;;;24.56;54.20;99450.63;5052096;28;20478;-70
2021/07/13 02:06:30;;;;;;;26.25;14.00;;;;;;;24.78;54.11;99449.50;5067201;28;20063;-71
2021/07/13 02:08:58;;;;;;;28.70;14.45;;;;;;;24.99;53.63;99452.19;5050329;28;20422;-71
2021/07/13 02:11:26;;;;;;;25.23;14.50;;;;;;;25.20;52.81;99454.13;5066720;28;20119;-72
2021/07/13 02:13:52;;;;;;;22.00;13.68;;;;;;;25.46;51.88;99457.38;5033752;28;20137;-70
2021/07/13 02:16:19;;;;;;;27.00;14.80;;;;;;;25.70;51.23;99453.94;5033529;28;20033;-70
2021/07/13 02:18:47;;;;;;;34.80;15.65;;;;;;;25.86;50.58;99454.13;5033655;28;20049;-71
2021/07/13 02:21:14;;;;;;;36.90;18.63;;;;;;;26.07;50.15;99453.22;5050236;28;20090;-71
2021/07/13 02:23:41;;;;;;;37.92;16.35;;;;;;;26.25;49.24;99455.38;5033617;28;20406;-71
2021/07/13 02:26:09;;;;;;;47.88;16.52;;;;;;;26.58;47.91;99462.59;5033483;28;20532;-71
2021/07/13 02:28:46;;;;;;;34.00;14.35;;;;;;;26.81;48.31;99459.41;5033647;28;20122;-71
2021/07/13 02:31:16;;;;;;;47.00;15.88;;;;;;;27.05;47.37;99459.31;5033469;28;20045;-70
2021/07/13 02:33:58;;;;;;;35.72;14.32;;;;;;;27.26;47.51;99459.13;5051525;28;20143;-71
2021/07/13 02:36:28;;;;;;;26.95;13.55;;;;;;;27.38;47.85;99461.81;5016204;28;20067;-71
2021/07/13 02:38:57;;;;;;;48.50;15.45;;;;;;;27.58;46.33;99459.19;5032877;28;20048;-71
2021/07/13 02:41:23;;;;;;;40.28;15.55;;;;;;;27.78;46.77;99457.38;5033396;28;20048;-72
2021/07/13 02:43:51;;;;;;;34.97;15.02;;;;;;;27.87;45.77;99466.19;5049930;28;20045;-71
2021/07/13 02:46:17;;;;;;;34.47;13.70;;;;;;;27.95;46.14;99462.50;5049952;28;20131;-71
2021/07/13 02:48:43;;;;;;;46.88;13.63;;;;;;;28.11;45.76;99459.78;5051382;28;20045;-71
2021/07/13 02:51:11;;;;;;;33.30;13.48;;;;;;;28.28;44.30;99467.56;5049746;28;20521;-71
2021/07/13 02:53:38;;;;;;;38.63;14.40;;;;;;;28.52;44.02;99460.34;5049610;28;20045;-71
2021/07/13 02:56:08;;;;;;;24.05;12.95;;;;;;;28.72;44.52;99463.91;5049722;28;20549;-71
2021/07/13 02:58:35;;;;;;;27.05;12.48;;;;;;;28.94;43.41;99457.75;5016801;28;20135;-71
2021/07/13 03:01:04;;;;;;;30.25;11.95;;;;;;;29.17;42.46;99465.22;5049714;28;20518;-72
2021/07/13 03:03:30;;;;;;;19.77;9.83;;;;;;;29.37;39.99;99466.78;5033334;28;20045;-71
2021/07/13 03:05:56;;;;;;;15.48;9.48;;;;;;;29.49;39.36;99474.03;5049936;28;20045;-71
2021/07/13 03:08:22;;;;;;;22.63;9.82;;;;;;;29.63;39.71;99465.34;5049561;28;20051;-71
2021/07/13 03:10:54;;;;;;;23.80;10.68;;;;;;;29.77;38.76;99468.31;5049441;28;20098;-71
2021/07/13 03:13:25;;;;;;;16.17;7.80;;;;;;;29.95;37.43;99463.16;5033379;28;20045;-72
2021/07/13 03:15:51;;;;;;;9.68;6.40;;;;;;;30.21;36.11;99464.34;5052077;28;20060;-72
2021/07/13 03:18:17;;;;;;;9.63;5.90;;;;;;;30.28;35.57;99467.19;5049960;28;20041;-71
2021/07/13 03:20:48;;;;;;;8.38;5.90;;;;;;;30.46;34.80;99468.25;5032893;28;20044;-69
2021/07/13 03:23:16;;;;;;;9.45;5.97;;;;;;;30.63;33.91;99460.66;5066139;28;20090;-71
2021/07/13 03:25:42;;;;;;;8.65;5.82;;;;;;;30.73;34.08;99466.25;5032744;28;20037;-70
2021/07/13 03:28:10;;;;;;;8.05;5.63;;;;;;;31.05;33.98;99460.44;5016414;28;20111;-72
2021/07/13 03:30:35;;;;;;;7.93;5.32;;;;;;;31.17;33.40;99468.38;5032781;28;20033;-71
2021/07/13 03:33:02;;;;;;;8.02;5.72;;;;;;;31.26;34.15;99462.63;5049217;28;20060;-71
2021/07/13 03:35:30;;;;;;;9.50;5.70;;;;;;;31.04;33.73;99469.81;5049283;28;20091;-71
2021/07/13 03:37:56;;;;;;;8.73;5.95;;;;;;;31.14;34.06;99466.41;5049344;28;20494;-71
2021/07/13 03:40:23;;;;;;;7.35;5.80;;;;;;;31.33;33.91;99475.63;5049626;28;20037;-71
2021/07/13 03:42:51;;;;;;;8.68;5.72;;;;;;;31.51;33.25;99470.34;5032786;28;20045;-72
2021/07/13 03:45:17;;;;;;;10.70;4.95;;;;;;;31.48;33.35;99471.09;5032661;28;20064;-71
2021/07/13 03:48:02;;;;;;;9.73;5.78;;;;;;;31.52;33.23;99475.44;5016058;28;20057;-71
2021/07/13 03:50:33;;;;;;;6.75;6.05;;;;;;;31.62;33.40;99468.47;5052778;28;20506;-71
2021/07/13 03:52:59;;;;;;;7.13;6.07;;;;;;;31.81;33.65;99472.97;5036129;28;20049;-71
2021/07/13 03:55:26;;;;;;;8.85;6.15;;;;;;;31.78;33.67;99471.00;5052251;28;20051;-71
2021/07/13 03:57:56;;;;;;;8.15;6.03;;;;;;;31.87;32.79;99474.97;5052750;28;20052;-72
2021/07/13 04:00:27;;;;;;;6.45;5.50;;;;;;;31.89;33.09;99469.91;5052982;28;20475;-70
2021/07/13 04:02:53;;;;;;;12.02;6.60;;;;;;;31.90;33.03;99470.72;5053970;28;20127;-71
2021/07/13 04:05:19;;;;;;;8.82;6.32;;;;;;;31.94;32.99;99473.50;5052455;28;20521;-70
2021/07/13 04:07:45;;;;;;;9.43;6.03;;;;;;;32.03;33.35;99480.25;5035855;28;20049;-71
2021/07/13 04:10:15;;;;;;;13.20;6.93;;;;;;;32.12;33.26;99479.91;5052510;28;20250;-71
2021/07/13 04:12:42;;;;;;;13.23;7.30;;;;;;;32.12;33.87;99483.44;5052099;28;20063;-72
2021/07/13 04:15:09;;;;;;;15.27;7.25;;;;;;;31.96;33.71;99480.19;5052109;28;20075;-72
2021/07/13 04:17:34;;;;;;;13.07;7.75;;;;;;;31.89;34.56;99480.09;5052038;28;20049;-72
2021/07/13 04:20:01;;;;;;;9.57;7.55;;;;;;;31.87;34.02;99474.97;5052381;28;20045;-71
2021/07/13 04:22:27;;;;;;;12.73;7.90;;;;;;;31.97;34.08;99473.50;5052154;28;20048;-71
2021/07/13 04:24:53;;;;;;;10.40;7.93;;;;;;;32.03;33.82;99473.94;5053781;28;20040;-72
2021/07/13 04:27:19;;;;;;;9.90;8.15;;;;;;;32.07;33.90;99470.09;5035404;28;20041;-70
2021/07/13 04:29:44;;;;;;;11.63;8.15;;;;;;;32.17;33.68;99465.06;5052005;28;20449;-71
2021/07/13 04:32:10;;;;;;;9.73;8.70;;;;;;;32.30;33.59;99466.34;5051946;28;20049;-71
2021/07/13 04:34:36;;;;;;;11.80;8.32;;;;;;;32.38;34.25;99467.94;5068437;28;20052;-70
2021/07/13 04:37:02;;;;;;;10.43;8.25;;;;;;;32.39;33.82;99466.78;5052024;28;20045;-70
2021/07/13 04:39:28;;;;;;;10.02;8.07;;;;;;;32.50;33.66;99466.84;5035224;28;20037;-74
2021/07/13 04:41:54;;;;;;;11.00;8.63;;;;;;;32.57;32.91;99462.22;5051791;28;20056;-73
2021/07/13 04:44:20;;;;;;;12.80;9.05;;;;;;;32.67;33.27;99463.41;5051692;28;20044;-73
2021/07/13 04:46:46;;;;;;;12.85;8.68;;;;;;;32.77;32.92;99465.44;5035179;28;20091;-74
2021/07/13 04:49:12;;;;;;;10.73;9.23;;;;;;;32.87;32.57;99454.91;5051905;28;20589;-74
2021/07/13 04:51:40;;;;;;;11.55;9.02;;;;;;;32.88;32.17;99450.97;5068849;28;20127;-72
2021/07/13 04:54:08;;;;;;;14.32;9.10;;;;;;;32.86;33.00;99451.38;5051870;28;20087;-75
2021/07/13 04:56:34;;;;;;;11.82;8.77;;;;;;;32.77;33.13;99453.69;5052849;28;20080;-72
2021/07/13 04:59:00;;;;;;;14.40;9.90;;;;;;;32.83;34.19;99451.34;5051200;28;20052;-74
2021/07/13 05:01:28;;;;;;;13.25;9.40;;;;;;;32.85;33.17;99446.25;5051258;28;20041;-73
2021/07/13 05:03:54;;;;;;;11.75;9.05;;;;;;;32.97;32.84;99454.94;5068108;28;20559;-73
2021/07/13 05:06:20;;;;;;;12.50;9.85;;;;;;;32.86;32.11;99443.13;5052921;28;20062;-74
2021/07/13 05:08:47;;;;;;;13.95;9.77;;;;;;;33.10;33.37;99444.41;5051424;28;20073;-72
2021/07/13 05:11:14;;;;;;;12.85;9.93;;;;;;;33.08;32.82;99438.50;5050606;28;20049;-71
2021/07/13 05:13:40;;;;;;;15.02;9.60;;;;;;;32.92;32.55;99451.78;5050864;28;20049;-74
2021/07/13 05:16:06;;;;;;;12.98;9.85;;;;;;;32.67;32.88;99443.44;5017723;28;20048;-72
2021/07/13 05:18:34;;;;;;;13.48;9.60;;;;;;;32.44;33.15;99447.19;5051194;28;20095;-74
2021/07/13 05:21:04;;;;;;;11.02;9.00;;;;;;;32.28;33.23;99453.00;5052510;28;20032;-73
2021/07/13 05:23:30;;;;;;;12.55;9.50;;;;;;;32.19;33.45;99455.28;5034590;28;20190;-75
2021/07/13 05:25:56;;;;;;;15.32;9.05;;;;;;;32.11;33.70;99448.16;5034230;28;20079;-72
2021/07/13 05:28:22;;;;;;;12.30;8.68;;;;;;;32.05;33.85;99457.91;5034482;28;20040;-71
2021/07/13 05:30:49;;;;;;;13.05;8.93;;;;;;;31.94;34.00;99454.31;5050787;28;20048;-69
2021/07/13 05:33:21;;;;;;;12.80;9.45;;;;;;;31.82;34.06;99460.84;5050275;28;20049;-71
2021/07/13 05:36:15;;;;;;;11.05;9.15;;;;;;;31.72;34.52;99459.59;5051109;28;20442;-69
2021/07/13 05:38:48;;;;;;;9.98;8.68;;;;;;;31.59;35.00;99452.78;5033808;28;20041;-70
2021/07/13 05:41:15;;;;;;;12.27;8.77;;;;;;;31.49;35.01;99457.03;5034179;28;20045;-71
2021/07/13 05:43:40;;;;;;;12.43;8.85;;;;;;;31.35;35.17;99462.34;5050715;28;20060;-70
2021/07/13 05:46:06;;;;;;;13.05;8.93;;;;;;;31.22;35.37;99467.28;5050624;28;20336;-71
2021/07/13 05:48:32;;;;;;;10.32;7.93;;;;;;;31.10;35.58;99465.56;5051772;28;20045;-70
2021/07/13 05:50:58;;;;;;;9.73;7.65;;;;;;;31.01;36.14;99459.63;5051853;28;20414;-70
2021/07/13 05:53:24;;;;;;;9.38;7.47;;;;;;;30.91;36.53;99461.03;5033769;28;20462;-70
2021/07/13 05:55:50;;;;;;;7.78;7.07;;;;;;;30.84;36.51;99460.19;5033695;28;20149;-71
2021/07/13 05:58:20;;;;;;;9.45;7.45;;;;;;;30.76;37.24;99453.78;5050364;28;20274;-71
2021/07/13 06:00:47;;;;;;;10.10;7.43;;;;;;;30.71;36.63;99452.19;5050568;28;20048;-70
2021/07/13 06:03:13;;;;;;;12.50;8.05;;;;;;;30.67;37.05;99458.75;5066776;28;20123;-71
2021/07/13 06:05:39;;;;;;;10.15;7.90;;;;;;;30.65;37.64;99452.84;5017100;28;20087;-70
2021/07/13 06:08:05;;;;;;;8.00;7.20;;;;;;;30.62;36.47;99450.84;5051772;28;20051;-71
2021/07/13 06:10:31;;;;;;;9.68;7.35;;;;;;;30.61;36.49;99452.03;5050845;28;20254;-70
2021/07/13 06:12:57;;;;;;;7.50;6.80;;;;;;;30.53;36.34;99448.41;5051011;28;20080;-70
2021/07/13 06:15:23;;;;;;;8.23;6.55;;;;;;;30.51;36.07;99440.56;5050375;28;20497;-69
2021/07/13 06:17:49;;;;;;;8.50;6.10;;;;;;;30.57;35.90;99453.94;5049935;28;20049;-71
2021/07/13 06:20:16;;;;;;;7.32;6.40;;;;;;;30.52;35.79;99446.84;5050060;28;20624;-69
2021/07/13 06:22:43;;;;;;;10.10;6.65;;;;;;;30.50;36.61;99452.69;5033592;28;20522;-71
2021/07/13 06:25:09;;;;;;;10.02;8.07;;;;;;;30.48;37.29;99448.75;5033449;28;20037;-70
2021/07/13 06:27:35;;;;;;;8.85;6.30;;;;;;;30.45;36.36;99446.75;5049951;28;20202;-70
2021/07/13 06:30:03;;;;;;;8.55;5.82;;;;;;;30.39;35.20;99446.28;5050148;28;20044;-71
2021/07/13 06:32:29;;;;;;;5.40;4.90;;;;;;;30.36;33.99;99446.22;5049848;28;20045;-71
2021/07/13 06:34:55;;;;;;;6.47;5.03;;;;;;;30.33;34.17;99445.03;5051224;28;20421;-70
2021/07/13 06:37:21;;;;;;;7.53;5.57;;;;;;;30.34;35.22;99443.84;5049826;28;20107;-70
2021/07/13 06:39:47;;;;;;;7.40;5.97;;;;;;;30.37;35.63;99442.31;5050893;28;20055;-70
2021/07/13 06:42:13;;;;;;;5.53;5.03;;;;;;;30.35;33.82;99445.41;5016492;28;20049;-70
2021/07/13 06:44:39;;;;;;;5.60;5.07;;;;;;;30.32;34.05;99452.41;5049778;28;20119;-70
2021/07/13 06:47:05;;;;;;;5.65;5.15;;;;;;;30.33;34.84;99450.50;5066459;28;20136;-71
2021/07/13 06:49:31;;;;;;;6.05;5.45;;;;;;;30.24;33.98;99448.03;5049672;28;20653;-71
2021/07/13 06:51:57;;;;;;;7.25;5.68;;;;;;;30.28;35.45;99456.25;5051046;28;20064;-71
2021/07/13 06:54:23;;;;;;;7.13;6.43;;;;;;;30.26;34.99;99445.69;5050822;28;20114;-70
2021/07/13 06:56:49;;;;;;;7.15;6.43;;;;;;;30.27;34.71;99454.69;5049815;28;20079;-71
2021/07/13 06:59:14;;;;;;;13.10;5.90;;;;;;;30.23;34.89;99445.63;5049817;28;20041;-71
2021/07/13 07:01:40;;;;;;;8.20;6.25;;;;;;;30.20;35.32;99440.88;5033111;28;20044;-71
2021/07/13 07:04:06;;;;;;;7.65;6.13;;;;;;;30.25;35.57;99443.34;5033081;28;20502;-71
2021/07/13 07:06:32;;;;;;;6.60;6.00;;;;;;;30.27;34.50;99441.03;5050890;28;20537;-70
2021/07/13 07:08:59;;;;;;;7.68;5.22;;;;;;;30.29;34.39;99446.91;5049541;28;20159;-71
2021/07/13 07:11:25;;;;;;;9.13;6.43;;;;;;;30.33;34.42;99439.56;5066179;28;20061;-70
2021/07/13 07:13:51;;;;;;;6.18;5.57;;;;;;;30.34;34.31;99435.66;5032846;28;20198;-71
2021/07/13 07:16:17;;;;;;;6.72;6.00;;;;;;;30.41;34.38;99440.41;5050774;28;20127;-71
2021/07/13 07:18:42;;;;;;;6.60;5.97;;;;;;;30.44;34.33;99439.69;5032970;28;20566;-71
2021/07/13 07:21:08;;;;;;;7.35;5.93;;;;;;;30.43;33.87;99438.13;5049523;28;20043;-71
2021/07/13 07:23:35;;;;;;;7.68;5.80;;;;;;;30.46;33.50;99440.09;5068967;28;20083;-70
2021/07/13 07:26:01;;;;;;;8.80;5.60;;;;;;;30.46;33.51;99438.16;5053299;28;20052;-70
2021/07/13 07:28:26;;;;;;;7.88;5.32;;;;;;;30.45;31.96;99430.34;5053217;28;20045;-70
2021/07/13 07:30:52;;;;;;;7.45;5.55;;;;;;;30.44;32.44;99432.25;5054408;28;20118;-71
2021/07/13 07:33:18;;;;;;;6.60;5.53;;;;;;;30.46;32.98;99426.44;5036346;28;20087;-71
2021/07/13 07:35:44;;;;;;;7.60;5.25;;;;;;;30.46;32.39;99424.47;5053175;28;20061;-69
2021/07/13 07:38:11;;;;;;;8.80;5.72;;;;;;;30.57;33.50;99426.59;5054052;28;20102;-70
2021/07/13 07:40:37;;;;;;;7.05;6.13;;;;;;;30.58;33.39;99431.69;5053175;28;20136;-69
2021/07/13 07:43:03;;;;;;;22.23;6.78;;;;;;;30.60;32.95;99426.63;5052990;28;20076;-70
2021/07/13 07:45:29;;;;;;;11.38;5.90;;;;;;;30.60;33.17;99426.63;5052786;28;20506;-71
2021/07/13 07:47:56;;;;;;;6.90;5.75;;;;;;;30.63;32.87;99431.34;5052901;28;20132;-70
2021/07/13 07:50:23;;;;;;;8.43;5.82;;;;;;;30.59;31.60;99425.06;5036121;28;20041;-70
2021/07/13 07:52:49;;;;;;;7.28;5.55;;;;;;;30.61;32.48;99433.66;5052893;28;20053;-71
2021/07/13 07:55:16;;;;;;;6.47;5.55;;;;;;;30.62;32.68;99426.25;5053885;28;20055;-70
2021/07/13 07:57:43;;;;;;;11.18;6.28;;;;;;;30.62;32.63;99424.31;5052570;28;20095;-70
2021/07/13 08:00:14;;;;;;;6.72;5.90;;;;;;;30.53;32.58;99421.03;5053901;28;20047;-71
2021/07/13 08:02:41;;;;;;;10.02;6.45;;;;;;;30.50;32.92;99417.13;5053824;28;20090;-70
2021/07/13 08:05:08;;;;;;;6.32;5.72;;;;;;;30.54;33.21;99426.16;5052399;28;20537;-70
2021/07/13 08:07:34;;;;;;;8.05;6.28;;;;;;;30.58;33.49;99418.00;5052383;28;20075;-71
2021/07/13 08:10:00;;;;;;;7.32;6.10;;;;;;;30.63;33.63;99405.94;5069082;28;20606;-71
2021/07/13 08:12:27;;;;;;;9.15;6.13;;;;;;;30.72;33.46;99411.94;5053310;28;20143;-71
2021/07/13 08:14:52;;;;;;;10.80;6.65;;;;;;;30.70;33.80;99412.28;5053669;28;20080;-70
2021/07/13 08:17:19;;;;;;;7.03;6.30;;;;;;;30.71;33.40;99408.41;5053262;28;20072;-69
2021/07/13 08:19:48;;;;;;;10.80;6.80;;;;;;;30.69;33.13;99410.72;5053778;28;20048;-71
2021/07/13 08:22:13;;;;;;;8.88;6.07;;;;;;;30.65;33.06;99409.09;5053197;28;20525;-71
2021/07/13 08:24:40;;;;;;;7.65;6.40;;;;;;;30.61;33.89;99406.31;5053685;28;20037;-70
2021/07/13 08:27:07;;;;;;;10.00;7.10;;;;;;;30.68;33.59;99405.59;5035430;28;20041;-71
2021/07/13 08:29:33;;;;;;;10.55;7.10;;;;;;;30.69;33.96;99399.00;5052042;28;20049;-70
2021/07/13 08:31:59;;;;;;;7.53;6.72;;;;;;;30.71;34.38;99402.94;5051911;28;20086;-70
2021/07/13 08:34:30;;;;;;;8.73;6.90;;;;;;;30.72;34.39;99400.97;5051338;28;20040;-70
2021/07/13 08:36:57;;;;;;;7.53;6.57;;;;;;;30.74;33.70;99395.94;5051995;28;20056;-70
2021/07/13 08:39:25;;;;;;;11.52;7.30;;;;;;;30.74;33.26;99401.41;5035518;28;20040;-71
2021/07/13 08:41:51;;;;;;;8.73;7.07;;;;;;;30.72;34.13;99396.28;5051517;28;20418;-72
2021/07/13 08:44:17;;;;;;;13.43;10.73;;;;;;;30.69;34.54;99388.84;5018733;28;20109;-71
2021/07/13 08:46:43;;;;;;;13.35;7.50;;;;;;;30.64;34.16;99378.22;5035335;28;20135;-71
2021/07/13 08:49:11;;;;;;;8.57;7.28;;;;;;;30.73;34.61;99388.88;5034944;28;20056;-71
2021/07/13 08:51:38;;;;;;;10.60;6.82;;;;;;;30.74;33.87;99383.03;5051622;28;20037;-70
2021/07/13 08:54:05;;;;;;;8.88;7.00;;;;;;;30.78;33.57;99383.06;5053020;28;20568;-71
2021/07/13 08:56:35;;;;;;;9.18;6.97;;;;;;;30.81;34.10;99387.03;5052890;28;20044;-71
2021/07/13 08:59:03;;;;;;;8.40;7.10;;;;;;;30.74;33.77;99374.03;5052713;28;20053;-70
2021/07/13 09:01:30;;;;;;;9.25;7.32;;;;;;;30.77;33.24;99376.81;5052987;28;20072;-71
2021/07/13 09:03:56;;;;;;;7.38;6.68;;;;;;;30.82;33.52;99375.72;5051397;28;20041;-70
2021/07/13 09:06:24;;;;;;;9.85;7.05;;;;;;;30.78;33.16;99375.69;5034395;28;20387;-72
2021/07/13 09:08:50;;;;;;;11.32;6.80;;;;;;;30.80;32.93;99379.97;5050961;28;20041;-71
2021/07/13 09:11:20;;;;;;;7.60;6.80;;;;;;;30.75;33.28;99368.19;5050994;28;20528;-70
2021/07/13 09:13:59;;;;;;;7.63;6.63;;;;;;;30.84;33.16;99387.06;5034585;28;20143;-70
2021/07/13 09:16:27;;;;;;;19.08;7.40;;;;;;;30.89;33.31;99375.81;5051079;28;20168;-70
2021/07/13 09:18:54;;;;;;;7.95;6.78;;;;;;;30.91;32.85;99365.25;5018093;28;20460;-70
2021/07/13 09:21:33;;;;;;;10.87;6.70;;;;;;;30.95;32.16;99382.50;5052151;28;20040;-71
2021/07/13 09:24:01;;;;;;;8.98;6.72;;;;;;;30.99;32.60;99380.59;5034255;28;20103;-70
2021/07/13 09:26:56;;;;;;;8.27;6.70;;;;;;;30.99;32.28;99377.06;5034145;28;20052;-70
2021/07/13 09:29:38;;;;;;;9.73;6.55;;;;;;;30.97;31.88;99384.88;5034137;28;20047;-70
2021/07/13 09:32:18;;;;;;;6.97;6.38;;;;;;;30.97;31.20;99376.66;5050642;28;20090;-71
2021/07/13 09:35:05;;;;;;;8.60;6.75;;;;;;;30.93;31.21;99370.38;5067523;28;20463;-71
2021/07/13 09:37:33;;;;;;;8.98;6.60;;;;;;;30.90;30.94;99374.63;5052242;28;20041;-70
2021/07/13 09:40:14;;;;;;;7.97;5.90;;;;;;;30.90;31.45;99369.16;5051040;28;20123;-70
2021/07/13 09:42:53;;;;;;;7.88;6.75;;;;;;;30.90;31.21;99377.38;5034061;28;20037;-70
2021/07/13 09:45:20;;;;;;;7.90;7.13;;;;;;;30.88;31.00;99370.69;5066971;28;20036;-71
2021/07/13 09:47:51;;;;;;;7.53;6.70;;;;;;;30.92;31.78;99371.53;5050311;28;20118;-71
2021/07/13 09:50:30;;;;;;;9.77;6.50;;;;;;;30.92;32.28;99371.53;5066581;28;20114;-71
2021/07/13 09:52:59;;;;;;;7.72;6.93;;;;;;;30.95;32.25;99374.31;5050078;28;20044;-70
2021/07/13 09:55:26;;;;;;;8.30;6.30;;;;;;;30.97;32.16;99369.25;5051663;28;20073;-71
2021/07/13 09:57:52;;;;;;;7.80;6.45;;;;;;;30.97;32.13;99365.69;5051701;28;20075;-70
2021/07/13 10:00:18;;;;;;;8.98;6.47;;;;;;;30.89;31.80;99359.38;5050051;28;20458;-70
2021/07/13 10:02:44;;;;;;;7.93;6.53;;;;;;;30.90;31.64;99360.94;5050013;28;20120;-71
2021/07/13 10:05:10;;;;;;;8.52;6.88;;;;;;;30.91;31.27;99357.03;5066592;28;20148;-70
2021/07/13 10:07:36;;;;;;;7.70;6.15;;;;;;;30.89;32.36;99351.19;5050072;28;20087;-69
2021/07/13 10:10:04;;;;;;;6.78;6.13;;;;;;;30.93;32.38;99357.47;5066535;28;20510;-69
2021/07/13 10:12:30;;;;;;;7.28;6.57;;;;;;;30.98;32.88;99348.91;5049697;28;20091;-71
2021/07/13 10:14:58;;;;;;;6.95;6.35;;;;;;;31.06;33.03;99344.31;5049822;28;20084;-70
2021/07/13 10:17:29;;;;;;;7.20;6.30;;;;;;;31.09;32.55;99351.78;5051027;28;20045;-71
2021/07/13 10:20:08;;;;;;;7.38;6.30;;;;;;;31.03;31.86;99352.47;5016845;28;20451;-69
2021/07/13 10:22:36;;;;;;;7.07;6.45;;;;;;;31.03;31.59;99357.94;5051194;28;20099;-69
2021/07/13 10:25:03;;;;;;;7.80;6.20;;;;;;;30.95;32.06;99352.41;5066827;28;20135;-70
2021/07/13 10:27:32;;;;;;;6.90;6.20;;;;;;;30.96;32.17;99348.50;5049689;28;20048;-70
2021/07/13 10:30:07;;;;;;;7.85;6.20;;;;;;;30.97;32.16;99352.03;5049877;28;20123;-69
2021/07/13 10:32:38;;;;;;;7.35;6.53;;;;;;;30.99;32.01;99349.69;5050136;28;20582;-69
2021/07/13 10:35:24;;;;;;;8.00;6.40;;;;;;;31.00;32.89;99346.59;5049788;28;20096;-70
2021/07/13 10:38:29;;;;;;;7.93;6.40;;;;;;;31.02;32.59;99348.94;5049951;28;20088;-71
2021/07/13 10:40:55;;;;;;;8.00;6.40;;;;;;;31.04;32.32;99343.91;5051073;28;20049;-71
2021/07/13 10:43:22;;;;;;;6.65;6.00;;;;;;;31.08;32.19;99346.66;5049840;28;20041;-69
2021/07/13 10:46:09;;;;;;;6.70;6.10;;;;;;;31.11;32.71;99345.91;5066358;28;20053;-69
2021/07/13 10:48:37;;;;;;;7.13;6.50;;;;;;;31.09;32.41;99345.50;5049799;28;20052;-70
2021/07/13 10:51:06;;;;;;;13.38;7.72;;;;;;;31.08;32.62;99350.19;5049750;28;20411;-69
2021/07/13 10:53:45;;;;;;;7.70;6.90;;;;;;;31.06;31.86;99344.31;5033190;28;20048;-70
2021/07/13 10:56:37;;;;;;;9.05;6.80;;;;;;;31.08;31.56;99338.44;5049710;28;20041;-70
2021/07/13 10:59:24;;;;;;;7.07;6.47;;;;;;;31.00;31.77;99334.84;5053477;28;20088;-69
2021/07/13 11:02:10;;;;;;;6.75;6.05;;;;;;;30.96;32.00;99334.03;5053661;28;20107;-69
2021/07/13 11:04:36;;;;;;;7.05;6.45;;;;;;;30.93;32.48;99332.81;5037131;28;20494;-70
2021/07/13 11:07:04;;;;;;;7.85;6.50;;;;;;;30.96;32.34;99337.56;5053445;28;20040;-69
2021/07/13 11:09:31;;;;;;;9.68;6.70;;;;;;;31.00;32.80;99338.38;5036890;28;20067;-70
2021/07/13 11:12:12;;;;;;;7.38;6.43;;;;;;;31.06;32.18;99329.81;5054363;28;20060;-69
2021/07/13 11:14:54;;;;;;;10.15;6.68;;;;;;;31.08;32.09;99325.53;5053332;28;20060;-70
2021/07/13 11:17:21;;;;;;;8.13;6.50;;;;;;;31.13;32.10;99327.94;5053463;28;20086;-69
2021/07/13 11:19:47;;;;;;;8.10;6.45;;;;;;;31.14;32.94;99328.72;5070257;28;20095;-70
2021/07/13 11:22:18;;;;;;;8.77;7.03;;;;;;;31.16;32.93;99318.19;5053256;28;20045;-70
2021/07/13 11:24:44;;;;;;;9.77;6.88;;;;;;;31.14;32.26;99320.50;5070119;28;20191;-70
2021/07/13 11:27:10;;;;;;;9.48;7.05;;;;;;;31.15;33.10;99319.34;5036732;28;20069;-70
2021/07/13 11:29:36;;;;;;;7.88;6.65;;;;;;;31.17;32.66;99312.31;5053241;28;20514;-71
2021/07/13 11:32:03;;;;;;;7.88;7.07;;;;;;;31.15;32.11;99311.13;5054702;28;20075;-69
2021/07/13 11:34:38;;;;;;;9.10;6.95;;;;;;;31.12;32.42;99309.16;5019982;28;20049;-70